sensor_id;sensor_type;location;lat;lon;timestamp;temperature;humidity
16441;DHT22;8330;-33.858;151.184;2023-07-22T00:00:00;13.20;99.90
16441;DHT22;8330;-33.858;151.184;2023-07-22T00:02:35;13.10;99.90
16441;DHT22;8330;-33.858;151.184;2023-07-22T00:05:07;13.00;99.90
16441;DHT22;8330;-33.858;151.184;2023-07-22T00:07:38;13.10;99.90
16441;DHT22;8330;-33.858;151.184;2023-07-22T00:10:11;13.30;99.90
16441;DHT22;8330;-33.858;151.184;2023-07-22T00:12:41;13.40;99.90
16441;DHT22;8330;-33.858;151.184;2023-07-22T00:15:12;13.40;99.90
16441;DHT22;8330;-33.858;151.184;2023-07-22T00:17:45;13.50;99.90
16441;DHT22;8330;-33.858;151.184;2023-07-22T00:20:16;13.60;99.90
16441;DHT22;8330;-33.858;151.184;2023-07-22T00:22:48;13.70;99.90
16441;DHT22;8330;-33.858;151.184;2023-07-22T00:25:18;13.80;99.90
16441;DHT22;8330;-33.858;151.184;2023-07-22T00:27:50;13.90;99.90
16441;DHT22;8330;-33.858;151.184;2023-07-22T00:30:21;13.90;99.90
16441;DHT22;8330;-33.858;151.184;2023-07-22T00:32:55;14.00;99.90
16441;DHT22;8330;-33.858;151.184;2023-07-22T00:35:27;14.20;99.90
16441;DHT22;8330;-33.858;151.184;2023-07-22T00:37:59;14.30;99.90
16441;DHT22;8330;-33.858;151.184;2023-07-22T00:40:31;14.50;99.90
16441;DHT22;8330;-33.858;151.184;2023-07-22T00:43:03;14.60;99.90
16441;DHT22;8330;-33.858;151.184;2023-07-22T00:45:35;14.50;99.90
16441;DHT22;8330;-33.858;151.184;2023-07-22T00:48:08;14.60;99.90
16441;DHT22;8330;-33.858;151.184;2023-07-22T00:50:40;14.70;99.90
16441;DHT22;8330;-33.858;151.184;2023-07-22T00:53:11;14.70;99.90
16441;DHT22;8330;-33.858;151.184;2023-07-22T00:55:42;14.90;99.90
16441;DHT22;8330;-33.858;151.184;2023-07-22T00:58:14;14.90;99.90
16441;DHT22;8330;-33.858;151.184;2023-07-22T01:00:45;15.00;99.90
16441;DHT22;8330;-33.858;151.184;2023-07-22T01:03:18;15.00;99.90
16441;DHT22;8330;-33.858;151.184;2023-07-22T01:05:50;15.20;99.90
16441;DHT22;8330;-33.858;151.184;2023-07-22T01:08:21;15.40;99.90
16441;DHT22;8330;-33.858;151.184;2023-07-22T01:10:52;15.40;99.90
16441;DHT22;8330;-33.858;151.184;2023-07-22T01:13:23;15.40;99.90
16441;DHT22;8330;-33.858;151.184;2023-07-22T01:15:54;15.30;99.90
16441;DHT22;8330;-33.858;151.184;2023-07-22T01:18:27;15.20;99.90
16441;DHT22;8330;-33.858;151.184;2023-07-22T01:20:58;15.30;99.90
16441;DHT22;8330;-33.858;151.184;2023-07-22T01:23:30;15.50;99.90
16441;DHT22;8330;-33.858;151.184;2023-07-22T01:26:02;15.60;99.90
16441;DHT22;8330;-33.858;151.184;2023-07-22T01:28:35;15.60;99.90
16441;DHT22;8330;-33.858;151.184;2023-07-22T01:31:06;15.70;99.90
16441;DHT22;8330;-33.858;151.184;2023-07-22T01:33:37;15.80;99.90
16441;DHT22;8330;-33.858;151.184;2023-07-22T01:36:08;15.90;99.90
16441;DHT22;8330;-33.858;151.184;2023-07-22T01:38:41;16.00;99.90
16441;DHT22;8330;-33.858;151.184;2023-07-22T01:41:11;16.10;99.90
16441;DHT22;8330;-33.858;151.184;2023-07-22T01:43:42;16.20;99.90
16441;DHT22;8330;-33.858;151.184;2023-07-22T01:46:13;16.20;99.90
16441;DHT22;8330;-33.858;151.184;2023-07-22T01:48:44;16.30;99.90
16441;DHT22;8330;-33.858;151.184;2023-07-22T01:51:15;16.30;99.90
16441;DHT22;8330;-33.858;151.184;2023-07-22T01:53:48;16.30;99.90
16441;DHT22;8330;-33.858;151.184;2023-07-22T01:56:19;16.20;99.90
16441;DHT22;8330;-33.858;151.184;2023-07-22T01:58:50;16.30;99.90
16441;DHT22;8330;-33.858;151.184;2023-07-22T02:01:21;16.40;99.90
16441;DHT22;8330;-33.858;151.184;2023-07-22T02:03:52;16.40;99.90
16441;DHT22;8330;-33.858;151.184;2023-07-22T02:06:23;16.60;99.90
16441;DHT22;8330;-33.858;151.184;2023-07-22T02:08:56;16.60;99.90
16441;DHT22;8330;-33.858;151.184;2023-07-22T02:11:28;16.80;99.90
16441;DHT22;8330;-33.858;151.184;2023-07-22T02:13:59;16.80;99.90
16441;DHT22;8330;-33.858;151.184;2023-07-22T02:16:30;16.90;99.90
16441;DHT22;8330;-33.858;151.184;2023-07-22T02:19:00;17.00;99.90
16441;DHT22;8330;-33.858;151.184;2023-07-22T02:21:31;17.00;99.90
16441;DHT22;8330;-33.858;151.184;2023-07-22T02:24:05;16.90;99.90
16441;DHT22;8330;-33.858;151.184;2023-07-22T02:26:36;17.00;99.90
16441;DHT22;8330;-33.858;151.184;2023-07-22T02:29:09;17.10;99.90
16441;DHT22;8330;-33.858;151.184;2023-07-22T02:31:41;17.20;99.90
16441;DHT22;8330;-33.858;151.184;2023-07-22T02:34:11;17.30;99.90
16441;DHT22;8330;-33.858;151.184;2023-07-22T02:36:44;17.30;99.90
16441;DHT22;8330;-33.858;151.184;2023-07-22T02:39:16;17.50;99.90
16441;DHT22;8330;-33.858;151.184;2023-07-22T02:41:47;17.60;99.90
16441;DHT22;8330;-33.858;151.184;2023-07-22T02:44:18;17.60;99.90
16441;DHT22;8330;-33.858;151.184;2023-07-22T02:46:49;17.60;99.90
16441;DHT22;8330;-33.858;151.184;2023-07-22T02:49:20;17.50;99.90
16441;DHT22;8330;-33.858;151.184;2023-07-22T02:51:51;17.50;99.90
16441;DHT22;8330;-33.858;151.184;2023-07-22T02:54:24;17.50;99.90
16441;DHT22;8330;-33.858;151.184;2023-07-22T02:56:55;17.30;99.90
16441;DHT22;8330;-33.858;151.184;2023-07-22T02:59:26;17.30;99.90
16441;DHT22;8330;-33.858;151.184;2023-07-22T03:01:56;17.20;99.90
16441;DHT22;8330;-33.858;151.184;2023-07-22T03:04:29;17.00;99.90
16441;DHT22;8330;-33.858;151.184;2023-07-22T03:07:01;17.00;99.90
16441;DHT22;8330;-33.858;151.184;2023-07-22T03:09:36;17.00;99.90
16441;DHT22;8330;-33.858;151.184;2023-07-22T03:12:07;17.20;99.90
16441;DHT22;8330;-33.858;151.184;2023-07-22T03:14:38;17.40;99.90
16441;DHT22;8330;-33.858;151.184;2023-07-22T03:17:09;17.50;99.90
16441;DHT22;8330;-33.858;151.184;2023-07-22T03:19:42;17.60;99.90
16441;DHT22;8330;-33.858;151.184;2023-07-22T03:22:14;17.70;99.90
16441;DHT22;8330;-33.858;151.184;2023-07-22T03:24:47;17.70;99.90
16441;DHT22;8330;-33.858;151.184;2023-07-22T03:27:18;17.90;99.90
16441;DHT22;8330;-33.858;151.184;2023-07-22T03:29:50;18.00;99.90
16441;DHT22;8330;-33.858;151.184;2023-07-22T03:32:20;18.00;99.90
16441;DHT22;8330;-33.858;151.184;2023-07-22T03:34:51;18.10;99.90
16441;DHT22;8330;-33.858;151.184;2023-07-22T03:37:22;18.10;99.90
16441;DHT22;8330;-33.858;151.184;2023-07-22T03:39:56;18.10;99.90
16441;DHT22;8330;-33.858;151.184;2023-07-22T03:42:26;18.10;99.90
16441;DHT22;8330;-33.858;151.184;2023-07-22T03:44:57;18.00;99.90
16441;DHT22;8330;-33.858;151.184;2023-07-22T03:47:28;18.10;99.90
16441;DHT22;8330;-33.858;151.184;2023-07-22T03:49:59;18.10;99.90
16441;DHT22;8330;-33.858;151.184;2023-07-22T03:52:30;18.00;99.90
16441;DHT22;8330;-33.858;151.184;2023-07-22T03:55:05;18.00;99.90
16441;DHT22;8330;-33.858;151.184;2023-07-22T03:57:36;18.00;99.90
16441;DHT22;8330;-33.858;151.184;2023-07-22T04:00:08;18.00;99.90
16441;DHT22;8330;-33.858;151.184;2023-07-22T04:02:39;17.90;99.90
16441;DHT22;8330;-33.858;151.184;2023-07-22T04:05:10;17.80;99.90
16441;DHT22;8330;-33.858;151.184;2023-07-22T04:07:43;17.80;99.90
16441;DHT22;8330;-33.858;151.184;2023-07-22T04:10:16;17.70;99.90
16441;DHT22;8330;-33.858;151.184;2023-07-22T04:12:48;17.50;99.90
16441;DHT22;8330;-33.858;151.184;2023-07-22T04:15:21;17.50;99.90
16441;DHT22;8330;-33.858;151.184;2023-07-22T04:17:52;17.40;99.90
16441;DHT22;8330;-33.858;151.184;2023-07-22T04:20:23;17.40;99.90
16441;DHT22;8330;-33.858;151.184;2023-07-22T04:22:53;17.40;99.90
16441;DHT22;8330;-33.858;151.184;2023-07-22T04:25:27;17.50;99.90
16441;DHT22;8330;-33.858;151.184;2023-07-22T04:28:00;17.40;99.90
16441;DHT22;8330;-33.858;151.184;2023-07-22T04:30:30;17.50;99.90
16441;DHT22;8330;-33.858;151.184;2023-07-22T04:33:01;17.40;99.90
16441;DHT22;8330;-33.858;151.184;2023-07-22T04:35:33;17.30;99.90
16441;DHT22;8330;-33.858;151.184;2023-07-22T04:38:04;17.30;99.90
16441;DHT22;8330;-33.858;151.184;2023-07-22T04:40:37;17.30;99.90
16441;DHT22;8330;-33.858;151.184;2023-07-22T04:43:07;17.20;99.90
16441;DHT22;8330;-33.858;151.184;2023-07-22T04:45:43;17.30;99.90
16441;DHT22;8330;-33.858;151.184;2023-07-22T04:48:16;17.10;99.90
16441;DHT22;8330;-33.858;151.184;2023-07-22T04:50:46;17.20;99.90
16441;DHT22;8330;-33.858;151.184;2023-07-22T04:53:18;17.20;99.90
16441;DHT22;8330;-33.858;151.184;2023-07-22T04:55:51;17.20;99.90
16441;DHT22;8330;-33.858;151.184;2023-07-22T04:58:23;17.20;99.90
16441;DHT22;8330;-33.858;151.184;2023-07-22T05:00:54;17.20;99.90
16441;DHT22;8330;-33.858;151.184;2023-07-22T05:03:24;17.10;99.90
16441;DHT22;8330;-33.858;151.184;2023-07-22T05:05:55;17.00;99.90
16441;DHT22;8330;-33.858;151.184;2023-07-22T05:08:27;17.00;99.90
16441;DHT22;8330;-33.858;151.184;2023-07-22T05:11:00;16.80;99.90
16441;DHT22;8330;-33.858;151.184;2023-07-22T05:13:31;16.80;99.90
16441;DHT22;8330;-33.858;151.184;2023-07-22T05:16:02;16.80;99.90
16441;DHT22;8330;-33.858;151.184;2023-07-22T05:18:33;16.80;99.90
16441;DHT22;8330;-33.858;151.184;2023-07-22T05:21:05;16.80;99.90
16441;DHT22;8330;-33.858;151.184;2023-07-22T05:23:35;17.00;99.90
16441;DHT22;8330;-33.858;151.184;2023-07-22T05:26:08;17.00;99.90
16441;DHT22;8330;-33.858;151.184;2023-07-22T05:28:39;17.00;99.90
16441;DHT22;8330;-33.858;151.184;2023-07-22T05:31:09;17.00;99.90
16441;DHT22;8330;-33.858;151.184;2023-07-22T05:33:40;17.00;99.90
16441;DHT22;8330;-33.858;151.184;2023-07-22T05:36:11;17.00;99.90
16441;DHT22;8330;-33.858;151.184;2023-07-22T05:38:42;17.00;99.90
16441;DHT22;8330;-33.858;151.184;2023-07-22T05:41:15;16.80;99.90
16441;DHT22;8330;-33.858;151.184;2023-07-22T05:43:45;16.80;99.90
16441;DHT22;8330;-33.858;151.184;2023-07-22T05:46:16;16.70;99.90
16441;DHT22;8330;-33.858;151.184;2023-07-22T05:48:47;16.70;99.90
16441;DHT22;8330;-33.858;151.184;2023-07-22T05:51:18;16.70;99.90
16441;DHT22;8330;-33.858;151.184;2023-07-22T05:53:50;16.70;99.90
16441;DHT22;8330;-33.858;151.184;2023-07-22T05:56:22;16.80;99.90
16441;DHT22;8330;-33.858;151.184;2023-07-22T05:58:53;16.80;99.90
16441;DHT22;8330;-33.858;151.184;2023-07-22T06:01:25;16.80;99.90
16441;DHT22;8330;-33.858;151.184;2023-07-22T06:03:56;16.90;99.90
16441;DHT22;8330;-33.858;151.184;2023-07-22T06:06:27;16.90;99.90
16441;DHT22;8330;-33.858;151.184;2023-07-22T06:08:57;16.90;99.90
16441;DHT22;8330;-33.858;151.184;2023-07-22T06:11:30;17.00;99.90
16441;DHT22;8330;-33.858;151.184;2023-07-22T06:14:01;17.00;99.90
16441;DHT22;8330;-33.858;151.184;2023-07-22T06:16:31;17.00;99.90
16441;DHT22;8330;-33.858;151.184;2023-07-22T06:19:03;17.10;99.90
16441;DHT22;8330;-33.858;151.184;2023-07-22T06:21:34;17.20;99.90
16441;DHT22;8330;-33.858;151.184;2023-07-22T06:24:05;17.20;99.90
16441;DHT22;8330;-33.858;151.184;2023-07-22T06:26:38;17.20;99.90
16441;DHT22;8330;-33.858;151.184;2023-07-22T06:29:08;17.20;99.90
16441;DHT22;8330;-33.858;151.184;2023-07-22T06:31:39;17.20;99.90
16441;DHT22;8330;-33.858;151.184;2023-07-22T06:34:11;17.30;99.90
16441;DHT22;8330;-33.858;151.184;2023-07-22T06:36:42;17.20;99.90
16441;DHT22;8330;-33.858;151.184;2023-07-22T06:39:12;17.20;99.90
16441;DHT22;8330;-33.858;151.184;2023-07-22T06:41:45;17.10;99.90
16441;DHT22;8330;-33.858;151.184;2023-07-22T06:44:16;17.00;99.90
16441;DHT22;8330;-33.858;151.184;2023-07-22T06:46:47;16.90;99.90
16441;DHT22;8330;-33.858;151.184;2023-07-22T06:49:18;16.80;99.90
16441;DHT22;8330;-33.858;151.184;2023-07-22T06:51:48;16.70;99.90
16441;DHT22;8330;-33.858;151.184;2023-07-22T06:54:19;16.60;99.90
16441;DHT22;8330;-33.858;151.184;2023-07-22T06:56:52;16.50;99.90
16441;DHT22;8330;-33.858;151.184;2023-07-22T06:59:23;16.50;99.90
16441;DHT22;8330;-33.858;151.184;2023-07-22T07:01:54;16.40;99.90
16441;DHT22;8330;-33.858;151.184;2023-07-22T07:04:24;16.30;99.90
16441;DHT22;8330;-33.858;151.184;2023-07-22T07:06:56;16.20;99.90
16441;DHT22;8330;-33.858;151.184;2023-07-22T07:09:28;16.20;99.90
16441;DHT22;8330;-33.858;151.184;2023-07-22T07:12:01;16.20;99.90
16441;DHT22;8330;-33.858;151.184;2023-07-22T07:14:32;16.10;99.90
16441;DHT22;8330;-33.858;151.184;2023-07-22T07:17:03;16.00;99.90
16441;DHT22;8330;-33.858;151.184;2023-07-22T07:19:34;16.00;99.90
16441;DHT22;8330;-33.858;151.184;2023-07-22T07:22:06;15.90;99.90
16441;DHT22;8330;-33.858;151.184;2023-07-22T07:24:37;15.90;99.90
16441;DHT22;8330;-33.858;151.184;2023-07-22T07:27:10;15.90;99.90
16441;DHT22;8330;-33.858;151.184;2023-07-22T07:29:41;15.80;99.90
16441;DHT22;8330;-33.858;151.184;2023-07-22T07:32:12;15.80;99.90
16441;DHT22;8330;-33.858;151.184;2023-07-22T07:34:43;15.80;99.90
16441;DHT22;8330;-33.858;151.184;2023-07-22T07:37:14;15.80;99.90
16441;DHT22;8330;-33.858;151.184;2023-07-22T07:39:44;15.80;99.90
16441;DHT22;8330;-33.858;151.184;2023-07-22T07:42:17;15.70;99.90
16441;DHT22;8330;-33.858;151.184;2023-07-22T07:44:48;15.70;99.90
16441;DHT22;8330;-33.858;151.184;2023-07-22T07:47:19;15.50;99.90
16441;DHT22;8330;-33.858;151.184;2023-07-22T07:49:50;15.50;99.90
16441;DHT22;8330;-33.858;151.184;2023-07-22T07:52:21;15.50;99.90
16441;DHT22;8330;-33.858;151.184;2023-07-22T07:54:51;15.50;99.90
16441;DHT22;8330;-33.858;151.184;2023-07-22T07:57:24;15.50;99.90
16441;DHT22;8330;-33.858;151.184;2023-07-22T07:59:55;15.40;99.90
16441;DHT22;8330;-33.858;151.184;2023-07-22T08:02:25;15.40;99.90
16441;DHT22;8330;-33.858;151.184;2023-07-22T08:04:56;15.40;99.90
16441;DHT22;8330;-33.858;151.184;2023-07-22T08:07:27;15.30;99.90
16441;DHT22;8330;-33.858;151.184;2023-07-22T08:09:58;15.30;99.90
16441;DHT22;8330;-33.858;151.184;2023-07-22T08:12:31;15.20;99.90
16441;DHT22;8330;-33.858;151.184;2023-07-22T08:15:02;15.20;99.90
16441;DHT22;8330;-33.858;151.184;2023-07-22T08:17:33;15.20;99.90
16441;DHT22;8330;-33.858;151.184;2023-07-22T08:20:04;15.20;99.90
16441;DHT22;8330;-33.858;151.184;2023-07-22T08:22:36;15.20;99.90
16441;DHT22;8330;-33.858;151.184;2023-07-22T08:25:07;15.20;99.90
16441;DHT22;8330;-33.858;151.184;2023-07-22T08:27:39;15.10;99.90
16441;DHT22;8330;-33.858;151.184;2023-07-22T08:30:11;15.10;99.90
16441;DHT22;8330;-33.858;151.184;2023-07-22T08:32:42;15.10;99.90
16441;DHT22;8330;-33.858;151.184;2023-07-22T08:35:12;15.10;99.90
16441;DHT22;8330;-33.858;151.184;2023-07-22T08:37:45;15.00;99.90
16441;DHT22;8330;-33.858;151.184;2023-07-22T08:40:18;15.00;99.90
16441;DHT22;8330;-33.858;151.184;2023-07-22T08:42:51;15.00;99.90
16441;DHT22;8330;-33.858;151.184;2023-07-22T08:45:24;14.90;99.90
16441;DHT22;8330;-33.858;151.184;2023-07-22T08:47:57;14.90;99.90
16441;DHT22;8330;-33.858;151.184;2023-07-22T08:50:31;14.80;99.90
16441;DHT22;8330;-33.858;151.184;2023-07-22T08:53:05;14.80;99.90
16441;DHT22;8330;-33.858;151.184;2023-07-22T08:55:36;14.80;99.90
16441;DHT22;8330;-33.858;151.184;2023-07-22T08:58:10;14.80;99.90
16441;DHT22;8330;-33.858;151.184;2023-07-22T09:00:42;14.80;99.90
16441;DHT22;8330;-33.858;151.184;2023-07-22T09:03:14;14.80;99.90
16441;DHT22;8330;-33.858;151.184;2023-07-22T09:05:45;14.70;99.90
16441;DHT22;8330;-33.858;151.184;2023-07-22T09:08:16;14.70;99.90
16441;DHT22;8330;-33.858;151.184;2023-07-22T09:10:48;14.70;99.90
16441;DHT22;8330;-33.858;151.184;2023-07-22T09:13:21;14.70;99.90
16441;DHT22;8330;-33.858;151.184;2023-07-22T09:15:53;14.70;99.90
16441;DHT22;8330;-33.858;151.184;2023-07-22T09:18:24;14.80;99.90
16441;DHT22;8330;-33.858;151.184;2023-07-22T09:20:55;14.70;99.90
16441;DHT22;8330;-33.858;151.184;2023-07-22T09:23:35;14.70;99.90
16441;DHT22;8330;-33.858;151.184;2023-07-22T09:26:13;14.70;99.90
16441;DHT22;8330;-33.858;151.184;2023-07-22T09:28:53;14.70;99.90
16441;DHT22;8330;-33.858;151.184;2023-07-22T09:31:24;14.70;99.90
16441;DHT22;8330;-33.858;151.184;2023-07-22T09:33:56;14.70;99.90
16441;DHT22;8330;-33.858;151.184;2023-07-22T09:36:50;14.70;99.90
16441;DHT22;8330;-33.858;151.184;2023-07-22T09:39:22;14.70;99.90
16441;DHT22;8330;-33.858;151.184;2023-07-22T09:41:53;14.60;99.90
16441;DHT22;8330;-33.858;151.184;2023-07-22T09:44:30;14.60;99.90
16441;DHT22;8330;-33.858;151.184;2023-07-22T09:47:07;14.60;99.90
16441;DHT22;8330;-33.858;151.184;2023-07-22T09:49:41;14.60;99.90
16441;DHT22;8330;-33.858;151.184;2023-07-22T09:52:12;14.50;99.90
16441;DHT22;8330;-33.858;151.184;2023-07-22T09:54:49;14.50;99.90
16441;DHT22;8330;-33.858;151.184;2023-07-22T09:57:22;14.50;99.90
16441;DHT22;8330;-33.858;151.184;2023-07-22T09:59:55;14.50;99.90
16441;DHT22;8330;-33.858;151.184;2023-07-22T10:02:30;14.50;99.90
16441;DHT22;8330;-33.858;151.184;2023-07-22T10:05:03;14.40;99.90
16441;DHT22;8330;-33.858;151.184;2023-07-22T10:07:34;14.40;99.90
16441;DHT22;8330;-33.858;151.184;2023-07-22T10:10:07;14.40;99.90
16441;DHT22;8330;-33.858;151.184;2023-07-22T10:12:40;14.40;99.90
16441;DHT22;8330;-33.858;151.184;2023-07-22T10:15:15;14.40;99.90
16441;DHT22;8330;-33.858;151.184;2023-07-22T10:17:46;14.30;99.90
16441;DHT22;8330;-33.858;151.184;2023-07-22T10:20:17;14.40;99.90
16441;DHT22;8330;-33.858;151.184;2023-07-22T10:22:49;14.30;99.90
16441;DHT22;8330;-33.858;151.184;2023-07-22T10:25:21;14.20;99.90
16441;DHT22;8330;-33.858;151.184;2023-07-22T10:27:52;14.10;99.90
16441;DHT22;8330;-33.858;151.184;2023-07-22T10:30:25;14.10;99.90
16441;DHT22;8330;-33.858;151.184;2023-07-22T10:32:56;14.20;99.90
16441;DHT22;8330;-33.858;151.184;2023-07-22T10:35:41;14.10;99.90
16441;DHT22;8330;-33.858;151.184;2023-07-22T10:38:13;14.10;99.90
16441;DHT22;8330;-33.858;151.184;2023-07-22T10:40:48;14.10;99.90
16441;DHT22;8330;-33.858;151.184;2023-07-22T10:43:24;14.00;99.90
16441;DHT22;8330;-33.858;151.184;2023-07-22T10:45:57;14.00;99.90
16441;DHT22;8330;-33.858;151.184;2023-07-22T10:48:34;14.00;99.90
16441;DHT22;8330;-33.858;151.184;2023-07-22T10:51:07;14.00;99.90
16441;DHT22;8330;-33.858;151.184;2023-07-22T10:53:42;14.10;99.90
16441;DHT22;8330;-33.858;151.184;2023-07-22T10:56:14;14.10;99.90
16441;DHT22;8330;-33.858;151.184;2023-07-22T10:58:59;14.10;99.90
16441;DHT22;8330;-33.858;151.184;2023-07-22T11:01:37;14.10;99.90
16441;DHT22;8330;-33.858;151.184;2023-07-22T11:04:13;14.10;99.90
16441;DHT22;8330;-33.858;151.184;2023-07-22T11:06:54;14.00;99.90
16441;DHT22;8330;-33.858;151.184;2023-07-22T11:09:39;14.00;99.90
16441;DHT22;8330;-33.858;151.184;2023-07-22T11:12:13;13.90;99.90
16441;DHT22;8330;-33.858;151.184;2023-07-22T11:14:48;13.80;99.90
16441;DHT22;8330;-33.858;151.184;2023-07-22T11:17:29;13.80;99.90
16441;DHT22;8330;-33.858;151.184;2023-07-22T11:20:00;13.70;99.90
16441;DHT22;8330;-33.858;151.184;2023-07-22T11:22:31;13.60;99.90
16441;DHT22;8330;-33.858;151.184;2023-07-22T11:25:02;13.70;99.90
16441;DHT22;8330;-33.858;151.184;2023-07-22T11:27:33;13.60;99.90
16441;DHT22;8330;-33.858;151.184;2023-07-22T11:30:04;13.60;99.90
16441;DHT22;8330;-33.858;151.184;2023-07-22T11:32:43;13.60;99.90
16441;DHT22;8330;-33.858;151.184;2023-07-22T11:35:16;13.60;99.90
16441;DHT22;8330;-33.858;151.184;2023-07-22T11:37:47;13.50;99.90
16441;DHT22;8330;-33.858;151.184;2023-07-22T11:40:18;13.50;99.90
16441;DHT22;8330;-33.858;151.184;2023-07-22T11:42:49;13.60;99.90
16441;DHT22;8330;-33.858;151.184;2023-07-22T11:45:20;13.50;99.90
16441;DHT22;8330;-33.858;151.184;2023-07-22T11:47:52;13.50;99.90
16441;DHT22;8330;-33.858;151.184;2023-07-22T11:50:32;13.50;99.90
16441;DHT22;8330;-33.858;151.184;2023-07-22T11:53:03;13.50;99.90
16441;DHT22;8330;-33.858;151.184;2023-07-22T11:55:36;13.50;99.90
16441;DHT22;8330;-33.858;151.184;2023-07-22T11:58:07;13.50;99.90
16441;DHT22;8330;-33.858;151.184;2023-07-22T12:00:38;13.40;99.90
16441;DHT22;8330;-33.858;151.184;2023-07-22T12:03:15;13.40;99.90
16441;DHT22;8330;-33.858;151.184;2023-07-22T12:05:46;13.40;99.90
16441;DHT22;8330;-33.858;151.184;2023-07-22T12:08:17;13.30;99.90
16441;DHT22;8330;-33.858;151.184;2023-07-22T12:10:57;13.30;99.90
16441;DHT22;8330;-33.858;151.184;2023-07-22T12:13:28;13.20;99.90
16441;DHT22;8330;-33.858;151.184;2023-07-22T12:16:02;13.20;99.90
16441;DHT22;8330;-33.858;151.184;2023-07-22T12:18:44;13.20;99.90
16441;DHT22;8330;-33.858;151.184;2023-07-22T12:21:15;13.30;99.90
16441;DHT22;8330;-33.858;151.184;2023-07-22T12:23:49;13.30;99.90
16441;DHT22;8330;-33.858;151.184;2023-07-22T12:26:20;13.40;99.90
16441;DHT22;8330;-33.858;151.184;2023-07-22T12:28:51;13.30;99.90
16441;DHT22;8330;-33.858;151.184;2023-07-22T12:31:22;13.30;99.90
16441;DHT22;8330;-33.858;151.184;2023-07-22T12:33:55;13.30;99.90
16441;DHT22;8330;-33.858;151.184;2023-07-22T12:36:26;13.30;99.90
16441;DHT22;8330;-33.858;151.184;2023-07-22T12:38:56;13.30;99.90
16441;DHT22;8330;-33.858;151.184;2023-07-22T12:41:27;13.30;99.90
16441;DHT22;8330;-33.858;151.184;2023-07-22T12:43:58;13.30;99.90
16441;DHT22;8330;-33.858;151.184;2023-07-22T12:46:29;13.30;99.90
16441;DHT22;8330;-33.858;151.184;2023-07-22T12:49:04;13.30;99.90
16441;DHT22;8330;-33.858;151.184;2023-07-22T12:51:35;13.20;99.90
16441;DHT22;8330;-33.858;151.184;2023-07-22T12:54:06;13.20;99.90
16441;DHT22;8330;-33.858;151.184;2023-07-22T12:56:37;13.20;99.90
16441;DHT22;8330;-33.858;151.184;2023-07-22T12:59:07;13.20;99.90
16441;DHT22;8330;-33.858;151.184;2023-07-22T13:01:38;13.10;99.90
16441;DHT22;8330;-33.858;151.184;2023-07-22T13:04:12;13.00;99.90
16441;DHT22;8330;-33.858;151.184;2023-07-22T13:06:43;13.00;99.90
16441;DHT22;8330;-33.858;151.184;2023-07-22T13:09:14;13.00;99.90
16441;DHT22;8330;-33.858;151.184;2023-07-22T13:11:45;13.00;99.90
16441;DHT22;8330;-33.858;151.184;2023-07-22T13:14:16;13.00;99.90
16441;DHT22;8330;-33.858;151.184;2023-07-22T13:16:48;13.00;99.90
16441;DHT22;8330;-33.858;151.184;2023-07-22T13:19:20;12.90;99.90
16441;DHT22;8330;-33.858;151.184;2023-07-22T13:21:51;12.90;99.90
16441;DHT22;8330;-33.858;151.184;2023-07-22T13:24:22;12.80;99.90
16441;DHT22;8330;-33.858;151.184;2023-07-22T13:26:53;12.80;99.90
16441;DHT22;8330;-33.858;151.184;2023-07-22T13:29:24;12.80;99.90
16441;DHT22;8330;-33.858;151.184;2023-07-22T13:31:56;12.90;99.90
16441;DHT22;8330;-33.858;151.184;2023-07-22T13:34:29;12.90;99.90
16441;DHT22;8330;-33.858;151.184;2023-07-22T13:37:00;12.80;99.90
16441;DHT22;8330;-33.858;151.184;2023-07-22T13:39:31;12.80;99.90
16441;DHT22;8330;-33.858;151.184;2023-07-22T13:42:02;12.70;99.90
16441;DHT22;8330;-33.858;151.184;2023-07-22T13:44:33;12.70;99.90
16441;DHT22;8330;-33.858;151.184;2023-07-22T13:47:04;12.60;99.90
16441;DHT22;8330;-33.858;151.184;2023-07-22T13:49:37;12.50;99.90
16441;DHT22;8330;-33.858;151.184;2023-07-22T13:52:08;12.50;99.90
16441;DHT22;8330;-33.858;151.184;2023-07-22T13:54:39;12.50;99.90
16441;DHT22;8330;-33.858;151.184;2023-07-22T13:57:09;12.50;99.90
16441;DHT22;8330;-33.858;151.184;2023-07-22T13:59:40;12.50;99.90
16441;DHT22;8330;-33.858;151.184;2023-07-22T14:02:11;12.60;99.90
16441;DHT22;8330;-33.858;151.184;2023-07-22T14:04:48;12.50;99.90
16441;DHT22;8330;-33.858;151.184;2023-07-22T14:07:19;12.50;99.90
16441;DHT22;8330;-33.858;151.184;2023-07-22T14:09:52;12.50;99.90
16441;DHT22;8330;-33.858;151.184;2023-07-22T14:12:24;12.50;99.90
16441;DHT22;8330;-33.858;151.184;2023-07-22T14:14:55;12.50;99.90
16441;DHT22;8330;-33.858;151.184;2023-07-22T14:17:26;12.50;99.90
16441;DHT22;8330;-33.858;151.184;2023-07-22T14:19:59;12.40;99.90
16441;DHT22;8330;-33.858;151.184;2023-07-22T14:22:32;12.40;99.90
16441;DHT22;8330;-33.858;151.184;2023-07-22T14:25:03;12.40;99.90
16441;DHT22;8330;-33.858;151.184;2023-07-22T14:27:34;12.30;99.90
16441;DHT22;8330;-33.858;151.184;2023-07-22T14:30:05;12.30;99.90
16441;DHT22;8330;-33.858;151.184;2023-07-22T14:32:36;12.20;99.90
16441;DHT22;8330;-33.858;151.184;2023-07-22T14:35:11;12.20;99.90
16441;DHT22;8330;-33.858;151.184;2023-07-22T14:37:42;12.20;99.90
16441;DHT22;8330;-33.858;151.184;2023-07-22T14:40:13;12.20;99.90
16441;DHT22;8330;-33.858;151.184;2023-07-22T14:42:44;12.10;99.90
16441;DHT22;8330;-33.858;151.184;2023-07-22T14:45:15;12.10;99.90
16441;DHT22;8330;-33.858;151.184;2023-07-22T14:47:46;12.00;99.90
16441;DHT22;8330;-33.858;151.184;2023-07-22T14:50:19;11.90;99.90
16441;DHT22;8330;-33.858;151.184;2023-07-22T14:52:50;11.80;99.90
16441;DHT22;8330;-33.858;151.184;2023-07-22T14:55:20;11.90;99.90
16441;DHT22;8330;-33.858;151.184;2023-07-22T14:57:52;11.90;99.90
16441;DHT22;8330;-33.858;151.184;2023-07-22T15:00:23;11.80;99.90
16441;DHT22;8330;-33.858;151.184;2023-07-22T15:02:54;11.80;99.90
16441;DHT22;8330;-33.858;151.184;2023-07-22T15:05:26;11.70;99.90
16441;DHT22;8330;-33.858;151.184;2023-07-22T15:07:57;11.70;99.90
16441;DHT22;8330;-33.858;151.184;2023-07-22T15:10:29;11.60;99.90
16441;DHT22;8330;-33.858;151.184;2023-07-22T15:13:00;11.50;99.90
16441;DHT22;8330;-33.858;151.184;2023-07-22T15:15:31;11.50;99.90
16441;DHT22;8330;-33.858;151.184;2023-07-22T15:18:02;11.50;99.90
16441;DHT22;8330;-33.858;151.184;2023-07-22T15:20:36;11.50;99.90
16441;DHT22;8330;-33.858;151.184;2023-07-22T15:23:08;11.40;99.90
16441;DHT22;8330;-33.858;151.184;2023-07-22T15:25:38;11.50;99.90
16441;DHT22;8330;-33.858;151.184;2023-07-22T15:28:09;11.50;99.90
16441;DHT22;8330;-33.858;151.184;2023-07-22T15:30:41;11.50;99.90